sensor_id;sensor_type;location;lat;lon;timestamp;P1;durP1;ratioP1;P2;durP2;ratioP2
77359;SDS011;66426;51.454;7.266;2023-04-24T00:00:44;1.25;;;0.73;;
77359;SDS011;66426;51.454;7.266;2023-04-24T00:01:45;1.23;;;0.60;;
77359;SDS011;66426;51.454;7.266;2023-04-24T00:02:46;0.60;;;0.60;;
77359;SDS011;66426;51.454;7.266;2023-04-24T00:03:47;1.60;;;0.85;;
77359;SDS011;66426;51.454;7.266;2023-04-24T00:04:48;0.65;;;0.65;;
77359;SDS011;66426;51.454;7.266;2023-04-24T00:05:49;0.60;;;0.60;;
77359;SDS011;66426;51.454;7.266;2023-04-24T00:06:51;1.13;;;1.00;;
77359;SDS011;66426;51.454;7.266;2023-04-24T00:07:54;0.90;;;0.90;;
77359;SDS011;66426;51.454;7.266;2023-04-24T00:08:55;1.35;;;0.80;;
77359;SDS011;66426;51.454;7.266;2023-04-24T00:09:56;1.05;;;0.85;;
77359;SDS011;66426;51.454;7.266;2023-04-24T00:10:58;2.85;;;1.13;;
77359;SDS011;66426;51.454;7.266;2023-04-24T00:11:59;0.80;;;0.80;;
77359;SDS011;66426;51.454;7.266;2023-04-24T00:13:01;1.10;;;1.00;;
77359;SDS011;66426;51.454;7.266;2023-04-24T00:14:02;1.17;;;1.00;;
77359;SDS011;66426;51.454;7.266;2023-04-24T00:15:03;0.95;;;0.95;;
77359;SDS011;66426;51.454;7.266;2023-04-24T00:16:06;0.52;;;0.52;;
77359;SDS011;66426;51.454;7.266;2023-04-24T00:17:06;1.10;;;1.02;;
77359;SDS011;66426;51.454;7.266;2023-04-24T00:18:07;1.38;;;1.00;;
77359;SDS011;66426;51.454;7.266;2023-04-24T00:19:08;0.85;;;0.85;;
77359;SDS011;66426;51.454;7.266;2023-04-24T00:20:10;1.15;;;1.10;;
77359;SDS011;66426;51.454;7.266;2023-04-24T00:21:11;1.13;;;0.88;;
77359;SDS011;66426;51.454;7.266;2023-04-24T00:22:12;1.02;;;0.95;;
77359;SDS011;66426;51.454;7.266;2023-04-24T00:23:13;1.65;;;0.90;;
77359;SDS011;66426;51.454;7.266;2023-04-24T00:24:14;1.70;;;1.10;;
77359;SDS011;66426;51.454;7.266;2023-04-24T00:25:15;1.15;;;0.93;;
77359;SDS011;66426;51.454;7.266;2023-04-24T00:26:16;1.30;;;1.20;;
77359;SDS011;66426;51.454;7.266;2023-04-24T00:27:18;2.17;;;0.90;;
77359;SDS011;66426;51.454;7.266;2023-04-24T00:28:20;1.48;;;0.85;;
77359;SDS011;66426;51.454;7.266;2023-04-24T00:29:21;2.78;;;1.10;;
77359;SDS011;66426;51.454;7.266;2023-04-24T00:30:22;2.05;;;1.20;;
77359;SDS011;66426;51.454;7.266;2023-04-24T00:31:23;1.30;;;1.20;;
77359;SDS011;66426;51.454;7.266;2023-04-24T00:32:24;3.72;;;1.13;;
77359;SDS011;66426;51.454;7.266;2023-04-24T00:33:25;1.48;;;1.15;;
77359;SDS011;66426;51.454;7.266;2023-04-24T00:34:25;1.50;;;1.10;;
77359;SDS011;66426;51.454;7.266;2023-04-24T00:35:26;1.45;;;1.00;;
77359;SDS011;66426;51.454;7.266;2023-04-24T00:36:27;1.33;;;1.20;;
77359;SDS011;66426;51.454;7.266;2023-04-24T00:37:28;1.50;;;1.23;;
77359;SDS011;66426;51.454;7.266;2023-04-24T00:38:29;2.05;;;1.00;;
77359;SDS011;66426;51.454;7.266;2023-04-24T00:39:30;1.10;;;1.00;;
77359;SDS011;66426;51.454;7.266;2023-04-24T00:40:31;2.58;;;1.15;;
77359;SDS011;66426;51.454;7.266;2023-04-24T00:41:32;1.25;;;1.13;;
77359;SDS011;66426;51.454;7.266;2023-04-24T00:42:33;1.05;;;0.93;;
77359;SDS011;66426;51.454;7.266;2023-04-24T00:43:36;1.75;;;1.20;;
77359;SDS011;66426;51.454;7.266;2023-04-24T00:44:36;1.27;;;1.13;;
77359;SDS011;66426;51.454;7.266;2023-04-24T00:45:37;1.50;;;1.20;;
77359;SDS011;66426;51.454;7.266;2023-04-24T00:46:38;1.30;;;1.02;;
77359;SDS011;66426;51.454;7.266;2023-04-24T00:47:40;1.48;;;1.10;;
77359;SDS011;66426;51.454;7.266;2023-04-24T00:48:42;1.23;;;1.10;;
77359;SDS011;66426;51.454;7.266;2023-04-24T00:49:43;1.90;;;1.17;;
77359;SDS011;66426;51.454;7.266;2023-04-24T00:50:44;2.13;;;1.20;;
77359;SDS011;66426;51.454;7.266;2023-04-24T00:51:46;1.48;;;1.08;;
77359;SDS011;66426;51.454;7.266;2023-04-24T00:52:47;1.40;;;1.30;;
77359;SDS011;66426;51.454;7.266;2023-04-24T00:53:48;1.45;;;1.30;;
77359;SDS011;66426;51.454;7.266;2023-04-24T00:54:49;1.65;;;1.25;;
77359;SDS011;66426;51.454;7.266;2023-04-24T00:55:50;1.90;;;1.17;;
77359;SDS011;66426;51.454;7.266;2023-04-24T00:56:51;1.20;;;1.10;;
77359;SDS011;66426;51.454;7.266;2023-04-24T00:57:53;2.15;;;1.00;;
77359;SDS011;66426;51.454;7.266;2023-04-24T00:58:55;1.00;;;0.95;;
77359;SDS011;66426;51.454;7.266;2023-04-24T00:59:56;1.90;;;1.20;;
77359;SDS011;66426;51.454;7.266;2023-04-24T01:00:57;3.40;;;1.52;;
77359;SDS011;66426;51.454;7.266;2023-04-24T01:01:59;2.17;;;1.50;;
77359;SDS011;66426;51.454;7.266;2023-04-24T01:03:00;1.30;;;1.20;;
77359;SDS011;66426;51.454;7.266;2023-04-24T01:04:04;1.38;;;1.27;;
77359;SDS011;66426;51.454;7.266;2023-04-24T01:05:07;1.15;;;1.13;;
77359;SDS011;66426;51.454;7.266;2023-04-24T01:06:08;1.95;;;1.30;;
77359;SDS011;66426;51.454;7.266;2023-04-24T01:07:10;1.13;;;1.02;;
77359;SDS011;66426;51.454;7.266;2023-04-24T01:08:11;1.67;;;1.20;;
77359;SDS011;66426;51.454;7.266;2023-04-24T01:09:13;2.80;;;1.23;;
77359;SDS011;66426;51.454;7.266;2023-04-24T01:10:15;2.38;;;1.10;;
77359;SDS011;66426;51.454;7.266;2023-04-24T01:11:18;1.73;;;1.40;;
77359;SDS011;66426;51.454;7.266;2023-04-24T01:12:19;1.80;;;1.27;;
77359;SDS011;66426;51.454;7.266;2023-04-24T01:13:20;1.50;;;1.38;;
77359;SDS011;66426;51.454;7.266;2023-04-24T01:14:23;1.88;;;1.30;;
77359;SDS011;66426;51.454;7.266;2023-04-24T01:15:23;1.52;;;1.40;;
77359;SDS011;66426;51.454;7.266;2023-04-24T01:16:24;3.33;;;1.70;;
77359;SDS011;66426;51.454;7.266;2023-04-24T01:17:26;1.75;;;1.30;;
77359;SDS011;66426;51.454;7.266;2023-04-24T01:18:27;1.20;;;1.10;;
77359;SDS011;66426;51.454;7.266;2023-04-24T01:19:28;1.30;;;1.20;;
77359;SDS011;66426;51.454;7.266;2023-04-24T01:20:29;2.03;;;1.45;;
77359;SDS011;66426;51.454;7.266;2023-04-24T01:21:30;1.20;;;1.10;;
77359;SDS011;66426;51.454;7.266;2023-04-24T01:22:36;0.70;;;0.70;;
77359;SDS011;66426;51.454;7.266;2023-04-24T01:23:37;1.70;;;1.20;;
77359;SDS011;66426;51.454;7.266;2023-04-24T01:24:38;1.90;;;1.20;;
77359;SDS011;66426;51.454;7.266;2023-04-24T01:25:39;1.45;;;1.30;;
77359;SDS011;66426;51.454;7.266;2023-04-24T01:26:40;2.10;;;1.60;;
77359;SDS011;66426;51.454;7.266;2023-04-24T01:27:41;2.40;;;1.33;;
77359;SDS011;66426;51.454;7.266;2023-04-24T01:28:42;1.90;;;1.20;;
77359;SDS011;66426;51.454;7.266;2023-04-24T01:29:43;1.90;;;1.42;;
77359;SDS011;66426;51.454;7.266;2023-04-24T01:30:45;1.58;;;1.45;;
77359;SDS011;66426;51.454;7.266;2023-04-24T01:31:46;2.22;;;1.42;;
77359;SDS011;66426;51.454;7.266;2023-04-24T01:32:47;1.70;;;1.40;;
77359;SDS011;66426;51.454;7.266;2023-04-24T01:33:48;1.63;;;1.50;;
77359;SDS011;66426;51.454;7.266;2023-04-24T01:34:50;4.18;;;1.48;;
77359;SDS011;66426;51.454;7.266;2023-04-24T01:35:51;1.42;;;1.30;;
77359;SDS011;66426;51.454;7.266;2023-04-24T01:36:53;1.38;;;1.20;;
77359;SDS011;66426;51.454;7.266;2023-04-24T01:37:55;1.83;;;1.42;;
77359;SDS011;66426;51.454;7.266;2023-04-24T01:38:56;2.50;;;1.58;;
77359;SDS011;66426;51.454;7.266;2023-04-24T01:39:57;4.70;;;1.98;;
77359;SDS011;66426;51.454;7.266;2023-04-24T01:40:58;2.35;;;1.77;;
77359;SDS011;66426;51.454;7.266;2023-04-24T01:41:59;2.38;;;1.52;;
77359;SDS011;66426;51.454;7.266;2023-04-24T01:43:01;2.03;;;1.55;;
77359;SDS011;66426;51.454;7.266;2023-04-24T01:44:02;3.20;;;1.52;;
77359;SDS011;66426;51.454;7.266;2023-04-24T01:45:04;1.77;;;1.50;;
77359;SDS011;66426;51.454;7.266;2023-04-24T01:46:06;2.50;;;1.38;;
77359;SDS011;66426;51.454;7.266;2023-04-24T01:47:07;1.48;;;1.38;;
77359;SDS011;66426;51.454;7.266;2023-04-24T01:48:08;2.75;;;1.73;;
77359;SDS011;66426;51.454;7.266;2023-04-24T01:49:09;3.53;;;2.20;;
77359;SDS011;66426;51.454;7.266;2023-04-24T01:50:10;2.05;;;1.70;;
77359;SDS011;66426;51.454;7.266;2023-04-24T01:51:11;1.55;;;1.45;;
77359;SDS011;66426;51.454;7.266;2023-04-24T01:52:13;3.05;;;1.90;;
77359;SDS011;66426;51.454;7.266;2023-04-24T01:53:15;1.60;;;1.50;;
77359;SDS011;66426;51.454;7.266;2023-04-24T01:54:16;2.13;;;1.50;;
77359;SDS011;66426;51.454;7.266;2023-04-24T01:55:17;1.75;;;1.55;;
77359;SDS011;66426;51.454;7.266;2023-04-24T01:56:18;2.67;;;1.48;;
77359;SDS011;66426;51.454;7.266;2023-04-24T01:57:20;2.25;;;1.63;;
77359;SDS011;66426;51.454;7.266;2023-04-24T01:58:21;3.70;;;1.80;;
77359;SDS011;66426;51.454;7.266;2023-04-24T01:59:23;2.58;;;1.67;;
77359;SDS011;66426;51.454;7.266;2023-04-24T02:00:25;2.33;;;1.70;;
77359;SDS011;66426;51.454;7.266;2023-04-24T02:01:26;2.72;;;1.67;;
77359;SDS011;66426;51.454;7.266;2023-04-24T02:02:27;2.90;;;1.65;;
77359;SDS011;66426;51.454;7.266;2023-04-24T02:03:29;3.25;;;1.80;;
77359;SDS011;66426;51.454;7.266;2023-04-24T02:04:30;3.97;;;1.73;;
77359;SDS011;66426;51.454;7.266;2023-04-24T02:05:30;1.98;;;1.60;;
77359;SDS011;66426;51.454;7.266;2023-04-24T02:06:31;2.10;;;1.58;;
77359;SDS011;66426;51.454;7.266;2023-04-24T02:07:32;2.33;;;1.63;;
77359;SDS011;66426;51.454;7.266;2023-04-24T02:08:35;3.30;;;1.80;;
77359;SDS011;66426;51.454;7.266;2023-04-24T02:09:35;2.80;;;1.90;;
77359;SDS011;66426;51.454;7.266;2023-04-24T02:10:36;3.65;;;2.15;;
77359;SDS011;66426;51.454;7.266;2023-04-24T02:11:37;3.53;;;2.10;;
77359;SDS011;66426;51.454;7.266;2023-04-24T02:12:38;4.32;;;1.90;;
77359;SDS011;66426;51.454;7.266;2023-04-24T02:13:39;3.60;;;2.10;;
77359;SDS011;66426;51.454;7.266;2023-04-24T02:14:40;2.72;;;1.77;;
77359;SDS011;66426;51.454;7.266;2023-04-24T02:15:42;2.92;;;2.20;;
77359;SDS011;66426;51.454;7.266;2023-04-24T02:16:43;4.25;;;2.55;;
77359;SDS011;66426;51.454;7.266;2023-04-24T02:17:44;4.90;;;2.60;;
77359;SDS011;66426;51.454;7.266;2023-04-24T02:18:45;4.70;;;2.47;;
77359;SDS011;66426;51.454;7.266;2023-04-24T02:19:46;5.93;;;2.33;;
77359;SDS011;66426;51.454;7.266;2023-04-24T02:20:47;4.97;;;2.53;;
77359;SDS011;66426;51.454;7.266;2023-04-24T02:21:48;6.10;;;2.80;;
77359;SDS011;66426;51.454;7.266;2023-04-24T02:22:48;5.13;;;2.67;;
77359;SDS011;66426;51.454;7.266;2023-04-24T02:23:51;5.63;;;2.50;;
77359;SDS011;66426;51.454;7.266;2023-04-24T02:24:52;6.93;;;2.90;;
77359;SDS011;66426;51.454;7.266;2023-04-24T02:25:52;3.95;;;2.65;;
77359;SDS011;66426;51.454;7.266;2023-04-24T02:26:53;4.25;;;2.80;;
77359;SDS011;66426;51.454;7.266;2023-04-24T02:27:55;5.03;;;2.90;;
77359;SDS011;66426;51.454;7.266;2023-04-24T02:28:56;3.83;;;2.75;;
77359;SDS011;66426;51.454;7.266;2023-04-24T02:29:56;6.00;;;2.90;;
77359;SDS011;66426;51.454;7.266;2023-04-24T02:30:57;3.22;;;1.92;;
77359;SDS011;66426;51.454;7.266;2023-04-24T02:31:59;4.47;;;3.00;;
77359;SDS011;66426;51.454;7.266;2023-04-24T02:33:00;4.93;;;2.80;;
77359;SDS011;66426;51.454;7.266;2023-04-24T02:34:00;4.82;;;3.10;;
77359;SDS011;66426;51.454;7.266;2023-04-24T02:35:01;6.20;;;2.67;;
77359;SDS011;66426;51.454;7.266;2023-04-24T02:36:02;6.45;;;3.25;;
77359;SDS011;66426;51.454;7.266;2023-04-24T02:37:04;5.18;;;2.78;;
77359;SDS011;66426;51.454;7.266;2023-04-24T02:38:05;6.93;;;3.17;;
77359;SDS011;66426;51.454;7.266;2023-04-24T02:39:07;6.22;;;3.63;;
77359;SDS011;66426;51.454;7.266;2023-04-24T02:40:08;5.53;;;2.92;;
77359;SDS011;66426;51.454;7.266;2023-04-24T02:41:10;6.72;;;2.95;;
77359;SDS011;66426;51.454;7.266;2023-04-24T02:42:11;5.00;;;2.95;;
77359;SDS011;66426;51.454;7.266;2023-04-24T02:43:12;5.40;;;3.08;;
77359;SDS011;66426;51.454;7.266;2023-04-24T02:44:12;7.00;;;3.63;;
77359;SDS011;66426;51.454;7.266;2023-04-24T02:45:13;5.80;;;3.53;;
77359;SDS011;66426;51.454;7.266;2023-04-24T02:46:14;8.18;;;3.60;;
77359;SDS011;66426;51.454;7.266;2023-04-24T02:47:15;6.47;;;3.60;;
77359;SDS011;66426;51.454;7.266;2023-04-24T02:48:16;7.25;;;3.60;;
77359;SDS011;66426;51.454;7.266;2023-04-24T02:49:17;5.55;;;3.25;;
77359;SDS011;66426;51.454;7.266;2023-04-24T02:50:18;6.10;;;3.58;;
77359;SDS011;66426;51.454;7.266;2023-04-24T02:51:19;8.57;;;3.83;;
77359;SDS011;66426;51.454;7.266;2023-04-24T02:52:20;5.70;;;3.60;;
77359;SDS011;66426;51.454;7.266;2023-04-24T02:53:21;6.03;;;2.80;;
77359;SDS011;66426;51.454;7.266;2023-04-24T02:54:24;10.18;;;3.83;;
77359;SDS011;66426;51.454;7.266;2023-04-24T02:55:25;6.70;;;3.90;;
77359;SDS011;66426;51.454;7.266;2023-04-24T02:56:26;6.53;;;3.67;;
77359;SDS011;66426;51.454;7.266;2023-04-24T02:57:27;7.47;;;3.72;;
77359;SDS011;66426;51.454;7.266;2023-04-24T02:58:28;7.28;;;3.38;;
77359;SDS011;66426;51.454;7.266;2023-04-24T02:59:29;9.68;;;3.78;;
77359;SDS011;66426;51.454;7.266;2023-04-24T03:00:30;4.72;;;3.00;;
77359;SDS011;66426;51.454;7.266;2023-04-24T03:01:30;7.47;;;3.78;;
77359;SDS011;66426;51.454;7.266;2023-04-24T03:02:31;6.95;;;3.72;;
77359;SDS011;66426;51.454;7.266;2023-04-24T03:03:32;6.13;;;3.72;;
77359;SDS011;66426;51.454;7.266;2023-04-24T03:04:33;8.48;;;3.88;;
77359;SDS011;66426;51.454;7.266;2023-04-24T03:05:34;7.28;;;3.92;;
77359;SDS011;66426;51.454;7.266;2023-04-24T03:06:35;7.20;;;3.70;;
77359;SDS011;66426;51.454;7.266;2023-04-24T03:07:36;8.48;;;3.92;;
77359;SDS011;66426;51.454;7.266;2023-04-24T03:08:37;7.15;;;4.40;;
77359;SDS011;66426;51.454;7.266;2023-04-24T03:09:39;7.38;;;4.32;;
77359;SDS011;66426;51.454;7.266;2023-04-24T03:10:40;6.82;;;4.25;;
77359;SDS011;66426;51.454;7.266;2023-04-24T03:11:41;8.75;;;3.95;;
77359;SDS011;66426;51.454;7.266;2023-04-24T03:12:42;6.63;;;3.80;;
77359;SDS011;66426;51.454;7.266;2023-04-24T03:13:43;6.97;;;4.07;;
77359;SDS011;66426;51.454;7.266;2023-04-24T03:14:44;12.15;;;4.75;;
77359;SDS011;66426;51.454;7.266;2023-04-24T03:15:45;6.80;;;3.85;;
77359;SDS011;66426;51.454;7.266;2023-04-24T03:16:47;6.45;;;3.78;;
77359;SDS011;66426;51.454;7.266;2023-04-24T03:17:48;7.70;;;4.20;;
77359;SDS011;66426;51.454;7.266;2023-04-24T03:18:49;5.70;;;3.67;;
77359;SDS011;66426;51.454;7.266;2023-04-24T03:19:50;8.02;;;4.45;;
77359;SDS011;66426;51.454;7.266;2023-04-24T03:20:50;10.98;;;3.85;;
77359;SDS011;66426;51.454;7.266;2023-04-24T03:21:51;7.88;;;4.47;;
77359;SDS011;66426;51.454;7.266;2023-04-24T03:22:52;8.90;;;4.05;;
77359;SDS011;66426;51.454;7.266;2023-04-24T03:23:53;11.23;;;4.57;;
77359;SDS011;66426;51.454;7.266;2023-04-24T03:24:56;7.18;;;3.90;;
77359;SDS011;66426;51.454;7.266;2023-04-24T03:25:57;4.93;;;3.13;;
77359;SDS011;66426;51.454;7.266;2023-04-24T03:26:58;8.00;;;4.50;;
77359;SDS011;66426;51.454;7.266;2023-04-24T03:27:59;9.43;;;4.40;;
77359;SDS011;66426;51.454;7.266;2023-04-24T03:29:00;7.10;;;4.65;;
77359;SDS011;66426;51.454;7.266;2023-04-24T03:30:01;10.20;;;4.63;;
77359;SDS011;66426;51.454;7.266;2023-04-24T03:31:02;7.68;;;4.60;;
77359;SDS011;66426;51.454;7.266;2023-04-24T03:32:03;9.20;;;4.18;;
77359;SDS011;66426;51.454;7.266;2023-04-24T03:33:04;10.15;;;4.63;;
77359;SDS011;66426;51.454;7.266;2023-04-24T03:34:05;10.13;;;4.93;;
77359;SDS011;66426;51.454;7.266;2023-04-24T03:35:07;9.30;;;4.65;;
77359;SDS011;66426;51.454;7.266;2023-04-24T03:36:09;7.07;;;3.92;;
77359;SDS011;66426;51.454;7.266;2023-04-24T03:37:10;9.07;;;4.30;;
77359;SDS011;66426;51.454;7.266;2023-04-24T03:38:10;7.38;;;4.18;;
77359;SDS011;66426;51.454;7.266;2023-04-24T03:39:11;7.82;;;3.80;;
77359;SDS011;66426;51.454;7.266;2023-04-24T03:40:14;7.80;;;4.60;;
77359;SDS011;66426;51.454;7.266;2023-04-24T03:41:15;9.07;;;4.53;;
77359;SDS011;66426;51.454;7.266;2023-04-24T03:42:16;8.15;;;4.00;;
77359;SDS011;66426;51.454;7.266;2023-04-24T03:43:16;7.00;;;4.43;;
77359;SDS011;66426;51.454;7.266;2023-04-24T03:44:17;7.22;;;4.57;;
77359;SDS011;66426;51.454;7.266;2023-04-24T03:45:18;7.28;;;4.32;;
77359;SDS011;66426;51.454;7.266;2023-04-24T03:46:19;7.05;;;4.45;;
77359;SDS011;66426;51.454;7.266;2023-04-24T03:47:20;12.52;;;4.90;;
77359;SDS011;66426;51.454;7.266;2023-04-24T03:48:21;9.88;;;4.75;;
77359;SDS011;66426;51.454;7.266;2023-04-24T03:49:22;7.68;;;4.80;;
77359;SDS011;66426;51.454;7.266;2023-04-24T03:50:23;10.18;;;4.60;;
77359;SDS011;66426;51.454;7.266;2023-04-24T03:51:24;8.60;;;4.43;;
77359;SDS011;66426;51.454;7.266;2023-04-24T03:52:25;9.10;;;5.05;;
77359;SDS011;66426;51.454;7.266;2023-04-24T03:53:26;6.82;;;4.38;;
77359;SDS011;66426;51.454;7.266;2023-04-24T03:54:27;7.47;;;4.97;;
77359;SDS011;66426;51.454;7.266;2023-04-24T03:55:29;8.75;;;5.25;;
77359;SDS011;66426;51.454;7.266;2023-04-24T03:56:30;10.18;;;4.70;;
77359;SDS011;66426;51.454;7.266;2023-04-24T03:57:30;12.55;;;4.70;;
77359;SDS011;66426;51.454;7.266;2023-04-24T03:58:31;11.50;;;4.97;;
77359;SDS011;66426;51.454;7.266;2023-04-24T03:59:32;7.18;;;4.50;;
77359;SDS011;66426;51.454;7.266;2023-04-24T04:00:33;10.60;;;5.20;;
77359;SDS011;66426;51.454;7.266;2023-04-24T04:01:34;9.57;;;5.13;;
77359;SDS011;66426;51.454;7.266;2023-04-24T04:02:37;8.63;;;4.93;;
77359;SDS011;66426;51.454;7.266;2023-04-24T04:03:37;7.97;;;4.82;;
77359;SDS011;66426;51.454;7.266;2023-04-24T04:04:38;7.60;;;4.43;;
77359;SDS011;66426;51.454;7.266;2023-04-24T04:05:39;9.00;;;4.53;;
77359;SDS011;66426;51.454;7.266;2023-04-24T04:06:40;9.05;;;5.13;;
77359;SDS011;66426;51.454;7.266;2023-04-24T04:07:41;10.30;;;5.30;;
77359;SDS011;66426;51.454;7.266;2023-04-24T04:08:42;10.27;;;4.78;;
77359;SDS011;66426;51.454;7.266;2023-04-24T04:09:43;9.43;;;5.13;;
77359;SDS011;66426;51.454;7.266;2023-04-24T04:10:45;12.25;;;5.47;;
77359;SDS011;66426;51.454;7.266;2023-04-24T04:11:46;7.40;;;4.28;;
77359;SDS011;66426;51.454;7.266;2023-04-24T04:12:47;7.57;;;4.82;;
77359;SDS011;66426;51.454;7.266;2023-04-24T04:13:48;12.10;;;5.18;;
77359;SDS011;66426;51.454;7.266;2023-04-24T04:14:49;7.70;;;4.43;;
77359;SDS011;66426;51.454;7.266;2023-04-24T04:15:49;12.75;;;5.25;;
77359;SDS011;66426;51.454;7.266;2023-04-24T04:16:50;9.45;;;4.68;;
77359;SDS011;66426;51.454;7.266;2023-04-24T04:17:51;9.20;;;5.03;;
77359;SDS011;66426;51.454;7.266;2023-04-24T04:18:52;12.68;;;4.70;;
77359;SDS011;66426;51.454;7.266;2023-04-24T04:19:53;8.77;;;5.07;;
77359;SDS011;66426;51.454;7.266;2023-04-24T04:20:55;12.90;;;5.45;;
77359;SDS011;66426;51.454;7.266;2023-04-24T04:21:57;7.85;;;4.85;;
77359;SDS011;66426;51.454;7.266;2023-04-24T04:22:58;8.80;;;4.95;;
77359;SDS011;66426;51.454;7.266;2023-04-24T04:23:59;8.13;;;4.60;;
77359;SDS011;66426;51.454;7.266;2023-04-24T04:24:59;8.82;;;4.82;;
77359;SDS011;66426;51.454;7.266;2023-04-24T04:26:02;13.43;;;5.38;;
77359;SDS011;66426;51.454;7.266;2023-04-24T04:27:03;8.93;;;4.68;;
77359;SDS011;66426;51.454;7.266;2023-04-24T04:28:05;8.35;;;4.93;;
77359;SDS011;66426;51.454;7.266;2023-04-24T04:29:06;7.80;;;4.97;;
77359;SDS011;66426;51.454;7.266;2023-04-24T04:30:08;7.57;;;4.22;;
77359;SDS011;66426;51.454;7.266;2023-04-24T04:31:10;10.85;;;4.90;;
77359;SDS011;66426;51.454;7.266;2023-04-24T04:32:10;10.20;;;5.40;;
77359;SDS011;66426;51.454;7.266;2023-04-24T04:33:11;8.65;;;5.38;;
77359;SDS011;66426;51.454;7.266;2023-04-24T04:34:12;9.80;;;5.70;;
77359;SDS011;66426;51.454;7.266;2023-04-24T04:35:14;7.70;;;4.95;;
77359;SDS011;66426;51.454;7.266;2023-04-24T04:36:15;9.98;;;5.60;;
77359;SDS011;66426;51.454;7.266;2023-04-24T04:37:17;9.35;;;5.93;;
77359;SDS011;66426;51.454;7.266;2023-04-24T04:38:18;10.32;;;5.60;;
77359;SDS011;66426;51.454;7.266;2023-04-24T04:39:19;12.43;;;5.55;;
77359;SDS011;66426;51.454;7.266;2023-04-24T04:40:21;8.23;;;4.90;;
77359;SDS011;66426;51.454;7.266;2023-04-24T04:41:23;10.40;;;5.53;;
77359;SDS011;66426;51.454;7.266;2023-04-24T04:42:24;11.95;;;5.50;;
77359;SDS011;66426;51.454;7.266;2023-04-24T04:43:25;12.90;;;5.63;;
77359;SDS011;66426;51.454;7.266;2023-04-24T04:44:26;9.13;;;5.63;;
77359;SDS011;66426;51.454;7.266;2023-04-24T04:45:28;9.90;;;5.60;;
77359;SDS011;66426;51.454;7.266;2023-04-24T04:46:29;9.95;;;5.10;;
77359;SDS011;66426;51.454;7.266;2023-04-24T04:47:32;11.13;;;5.38;;
77359;SDS011;66426;51.454;7.266;2023-04-24T04:48:34;10.05;;;5.15;;
77359;SDS011;66426;51.454;7.266;2023-04-24T04:49:35;10.75;;;5.28;;
77359;SDS011;66426;51.454;7.266;2023-04-24T04:50:36;11.02;;;5.32;;
77359;SDS011;66426;51.454;7.266;2023-04-24T04:51:37;12.05;;;5.40;;
77359;SDS011;66426;51.454;7.266;2023-04-24T04:52:38;10.85;;;5.00;;
77359;SDS011;66426;51.454;7.266;2023-04-24T04:53:39;10.90;;;5.18;;
77359;SDS011;66426;51.454;7.266;2023-04-24T04:54:40;10.68;;;5.65;;
77359;SDS011;66426;51.454;7.266;2023-04-24T04:55:40;14.25;;;5.40;;
77359;SDS011;66426;51.454;7.266;2023-04-24T04:56:43;11.18;;;5.30;;
77359;SDS011;66426;51.454;7.266;2023-04-24T04:57:44;9.68;;;5.60;;
77359;SDS011;66426;51.454;7.266;2023-04-24T04:58:45;8.95;;;4.78;;
77359;SDS011;66426;51.454;7.266;2023-04-24T04:59:46;7.40;;;4.45;;
77359;SDS011;66426;51.454;7.266;2023-04-24T05:00:47;10.23;;;5.40;;
77359;SDS011;66426;51.454;7.266;2023-04-24T05:01:49;7.07;;;4.40;;
77359;SDS011;66426;51.454;7.266;2023-04-24T05:02:50;9.82;;;5.25;;
77359;SDS011;66426;51.454;7.266;2023-04-24T05:03:51;9.32;;;5.28;;
77359;SDS011;66426;51.454;7.266;2023-04-24T05:04:52;8.38;;;5.00;;
77359;SDS011;66426;51.454;7.266;2023-04-24T05:05:53;9.95;;;5.18;;
77359;SDS011;66426;51.454;7.266;2023-04-24T05:06:54;9.15;;;5.40;;
77359;SDS011;66426;51.454;7.266;2023-04-24T05:07:55;8.43;;;5.05;;
77359;SDS011;66426;51.454;7.266;2023-04-24T05:08:56;11.35;;;5.35;;
77359;SDS011;66426;51.454;7.266;2023-04-24T05:09:57;10.68;;;6.22;;
77359;SDS011;66426;51.454;7.266;2023-04-24T05:10:58;10.63;;;5.50;;
77359;SDS011;66426;51.454;7.266;2023-04-24T05:12:00;8.60;;;4.93;;
77359;SDS011;66426;51.454;7.266;2023-04-24T05:13:02;11.10;;;5.47;;
77359;SDS011;66426;51.454;7.266;2023-04-24T05:14:04;11.80;;;5.22;;
77359;SDS011;66426;51.454;7.266;2023-04-24T05:15:05;9.77;;;5.15;;
77359;SDS011;66426;51.454;7.266;2023-04-24T05:16:07;9.18;;;4.88;;
77359;SDS011;66426;51.454;7.266;2023-04-24T05:17:08;7.15;;;4.07;;
77359;SDS011;66426;51.454;7.266;2023-04-24T05:18:09;10.27;;;4.85;;
77359;SDS011;66426;51.454;7.266;2023-04-24T05:19:10;9.00;;;5.15;;
77359;SDS011;66426;51.454;7.266;2023-04-24T05:20:12;7.18;;;4.30;;
77359;SDS011;66426;51.454;7.266;2023-04-24T05:21:13;8.13;;;4.60;;
77359;SDS011;66426;51.454;7.266;2023-04-24T05:22:14;7.97;;;4.72;;
77359;SDS011;66426;51.454;7.266;2023-04-24T05:23:15;10.15;;;5.28;;
77359;SDS011;66426;51.454;7.266;2023-04-24T05:24:16;6.65;;;4.20;;
77359;SDS011;66426;51.454;7.266;2023-04-24T05:25:17;9.07;;;4.95;;
77359;SDS011;66426;51.454;7.266;2023-04-24T05:26:18;9.15;;;4.88;;
77359;SDS011;66426;51.454;7.266;2023-04-24T05:27:21;7.50;;;4.35;;
77359;SDS011;66426;51.454;7.266;2023-04-24T05:28:22;8.13;;;4.43;;
77359;SDS011;66426;51.454;7.266;2023-04-24T05:29:23;7.57;;;4.22;;
77359;SDS011;66426;51.454;7.266;2023-04-24T05:30:24;5.93;;;3.60;;
77359;SDS011;66426;51.454;7.266;2023-04-24T05:31:25;7.38;;;4.18;;
77359;SDS011;66426;51.454;7.266;2023-04-24T05:32:26;8.18;;;4.35;;
77359;SDS011;66426;51.454;7.266;2023-04-24T05:33:27;9.77;;;4.32;;
77359;SDS011;66426;51.454;7.266;2023-04-24T05:34:28;8.10;;;4.82;;
77359;SDS011;66426;51.454;7.266;2023-04-24T05:35:29;6.97;;;4.45;;
77359;SDS011;66426;51.454;7.266;2023-04-24T05:36:30;8.38;;;4.18;;
77359;SDS011;66426;51.454;7.266;2023-04-24T05:37:31;7.55;;;4.78;;
77359;SDS011;66426;51.454;7.266;2023-04-24T05:38:32;7.78;;;5.25;;
77359;SDS011;66426;51.454;7.266;2023-04-24T05:39:33;8.98;;;4.80;;
77359;SDS011;66426;51.454;7.266;2023-04-24T05:40:35;7.00;;;4.30;;
77359;SDS011;66426;51.454;7.266;2023-04-24T05:41:36;7.00;;;4.38;;
77359;SDS011;66426;51.454;7.266;2023-04-24T05:42:38;8.73;;;4.40;;
77359;SDS011;66426;51.454;7.266;2023-04-24T05:43:39;8.65;;;4.50;;
77359;SDS011;66426;51.454;7.266;2023-04-24T05:44:40;7.82;;;4.53;;
77359;SDS011;66426;51.454;7.266;2023-04-24T05:45:40;9.07;;;4.63;;
77359;SDS011;66426;51.454;7.266;2023-04-24T05:46:41;9.25;;;5.05;;
77359;SDS011;66426;51.454;7.266;2023-04-24T05:47:42;8.07;;;4.85;;
77359;SDS011;66426;51.454;7.266;2023-04-24T05:48:44;9.05;;;4.68;;
77359;SDS011;66426;51.454;7.266;2023-04-24T05:49:45;9.75;;;4.95;;
77359;SDS011;66426;51.454;7.266;2023-04-24T05:50:46;8.48;;;4.68;;
77359;SDS011;66426;51.454;7.266;2023-04-24T05:51:48;7.07;;;4.43;;
77359;SDS011;66426;51.454;7.266;2023-04-24T05:52:49;7.40;;;4.57;;
77359;SDS011;66426;51.454;7.266;2023-04-24T05:53:50;7.18;;;4.72;;
77359;SDS011;66426;51.454;7.266;2023-04-24T05:54:50;8.75;;;4.95;;
77359;SDS011;66426;51.454;7.266;2023-04-24T05:55:51;7.50;;;4.75;;
77359;SDS011;66426;51.454;7.266;2023-04-24T05:56:52;11.27;;;5.43;;
77359;SDS011;66426;51.454;7.266;2023-04-24T05:57:56;8.43;;;4.20;;
77359;SDS011;66426;51.454;7.266;2023-04-24T05:58:57;8.63;;;4.85;;
77359;SDS011;66426;51.454;7.266;2023-04-24T05:59:58;10.50;;;5.18;;
77359;SDS011;66426;51.454;7.266;2023-04-24T06:00:59;7.88;;;4.72;;
77359;SDS011;66426;51.454;7.266;2023-04-24T06:02:01;8.35;;;4.65;;
77359;SDS011;66426;51.454;7.266;2023-04-24T06:03:02;9.95;;;5.35;;
77359;SDS011;66426;51.454;7.266;2023-04-24T06:04:04;8.57;;;4.60;;
77359;SDS011;66426;51.454;7.266;2023-04-24T06:05:05;6.57;;;3.85;;
77359;SDS011;66426;51.454;7.266;2023-04-24T06:06:06;8.27;;;4.60;;
77359;SDS011;66426;51.454;7.266;2023-04-24T06:07:07;7.18;;;4.63;;
77359;SDS011;66426;51.454;7.266;2023-04-24T06:08:08;8.55;;;5.10;;